Time;durP1;ratioP1;P1;durP2;ratioP2;P2;SDS_P1;SDS_P2;PMS_P1;PMS_P2;Temp;Humidity;BMP_temperature;BMP_pressure;BME280_temperature;BME280_humidity;BME280_pressure;Samples;Min_cycle;Max_cycle;Signal;HPM_P1;HPM_P2
2022/06/05 00:00:17;;;;;;;12.45;6.65;;;;;;;;;;5073848;28;20044;-70
2022/06/05 00:02:57;;;;;;;14.25;6.95;;;;;;;;;;5078639;28;20048;-70
2022/06/05 00:05:27;;;;;;;11.50;6.25;;;;;;;;;;5073054;28;20833;-70
2022/06/05 00:07:59;;;;;;;11.15;6.13;;;;;;;;;;5076058;28;20146;-70
2022/06/05 00:10:28;;;;;;;12.00;6.35;;;;;;;;;;5078212;28;20063;-70
2022/06/05 00:12:59;;;;;;;13.80;6.65;;;;;;;;;;5072486;28;20107;-70
2022/06/05 00:15:27;;;;;;;12.13;6.65;;;;;;;;;;5077636;28;20799;-70
2022/06/05 00:17:55;;;;;;;13.90;6.45;;;;;;;;;;5077827;28;20079;-70
2022/06/05 00:20:23;;;;;;;12.70;6.28;;;;;;;;;;5081186;28;20051;-70
2022/06/05 00:22:50;;;;;;;14.93;7.47;;;;;;;;;;5072746;28;20122;-70
2022/06/05 00:25:17;;;;;;;13.20;6.70;;;;;;;;;;5079176;28;20048;-70
2022/06/05 00:27:48;;;;;;;13.82;6.28;;;;;;;;;;5078474;28;20057;-70
2022/06/05 00:30:21;;;;;;;13.90;5.90;;;;;;;;;;5071228;28;20048;-70
2022/06/05 00:32:49;;;;;;;13.93;6.30;;;;;;;;;;5071116;28;20491;-70
2022/06/05 00:35:21;;;;;;;14.05;5.85;;;;;;;;;;5078919;28;20055;-70
2022/06/05 00:37:53;;;;;;;12.27;5.35;;;;;;;;;;5073235;28;20055;-70
2022/06/05 00:40:36;;;;;;;12.52;5.85;;;;;;;;;;5079897;28;20047;-70
2022/06/05 00:43:04;;;;;;;10.15;5.25;;;;;;;;;;5077545;28;20075;-70
2022/06/05 00:45:32;;;;;;;11.40;4.90;;;;;;;;;;5073230;28;20044;-70
2022/06/05 00:47:59;;;;;;;13.88;5.45;;;;;;;;;;5078100;28;20090;-70
2022/06/05 00:50:30;;;;;;;12.38;5.90;;;;;;;;;;5077272;28;20064;-70
2022/06/05 00:52:59;;;;;;;13.52;5.88;;;;;;;;;;5078607;28;20055;-70
2022/06/05 00:55:29;;;;;;;14.40;5.95;;;;;;;;;;5074817;28;20063;-70
2022/06/05 00:57:56;;;;;;;12.52;5.53;;;;;;;;;;5072506;28;20052;-70
2022/06/05 01:00:25;;;;;;;14.00;5.80;;;;;;;;;;5068118;28;20053;-70
2022/06/05 01:02:53;;;;;;;13.95;5.75;;;;;;;;;;5074953;28;20052;-70
2022/06/05 01:05:21;;;;;;;14.20;5.22;;;;;;;;;;5079727;28;20621;-70
2022/06/05 01:07:50;;;;;;;10.60;5.25;;;;;;;;;;5068621;28;20055;-70
2022/06/05 01:10:19;;;;;;;15.32;5.38;;;;;;;;;;5074712;28;20414;-70
2022/06/05 01:13:01;;;;;;;13.95;5.43;;;;;;;;;;5069524;28;20052;-70
2022/06/05 01:15:31;;;;;;;13.23;5.65;;;;;;;;;;5072614;28;20057;-70
2022/06/05 01:18:03;;;;;;;15.52;5.43;;;;;;;;;;5079916;28;20064;-70
2022/06/05 01:20:39;;;;;;;13.70;5.07;;;;;;;;;;5075763;28;20742;-70
2022/06/05 01:23:27;;;;;;;11.95;5.18;;;;;;;;;;5073572;28;20135;-70
2022/06/05 01:26:01;;;;;;;18.60;5.30;;;;;;;;;;5074180;28;20144;-70
2022/06/05 01:28:31;;;;;;;14.40;5.40;;;;;;;;;;5078395;28;20094;-69
2022/06/05 01:31:02;;;;;;;9.98;4.82;;;;;;;;;;5080240;28;20457;-70
2022/06/05 01:33:30;;;;;;;13.93;5.50;;;;;;;;;;5074248;28;20047;-70
2022/06/05 01:36:04;;;;;;;12.98;5.05;;;;;;;;;;5071295;28;20098;-70
2022/06/05 01:38:37;;;;;;;14.10;5.95;;;;;;;;;;5073163;28;20059;-70
2022/06/05 01:41:09;;;;;;;13.00;4.72;;;;;;;;;;5069303;28;20053;-70
2022/06/05 01:43:38;;;;;;;13.95;5.38;;;;;;;;;;5077813;28;20044;-69
2022/06/05 01:46:08;;;;;;;13.27;5.85;;;;;;;;;;5070933;28;20113;-69
2022/06/05 01:48:37;;;;;;;12.45;5.60;;;;;;;;;;5075677;28;20170;-69
2022/06/05 01:51:06;;;;;;;12.88;5.85;;;;;;;;;;5070085;28;20418;-70
2022/06/05 01:53:36;;;;;;;11.00;5.60;;;;;;;;;;5076342;28;20101;-70
2022/06/05 01:56:04;;;;;;;12.93;6.22;;;;;;;;;;5071030;28;20406;-69
2022/06/05 01:58:37;;;;;;;10.60;5.75;;;;;;;;;;5073565;28;20098;-69
2022/06/05 02:01:09;;;;;;;15.63;6.63;;;;;;;;;;5072199;28;20110;-69
2022/06/05 02:03:38;;;;;;;14.35;6.50;;;;;;;;;;5068564;28;20056;-69
2022/06/05 02:06:08;;;;;;;14.38;6.78;;;;;;;;;;5067181;28;20064;-69
2022/06/05 02:08:36;;;;;;;13.30;7.22;;;;;;;;;;5071582;28;20088;-69
2022/06/05 02:11:05;;;;;;;20.35;7.28;;;;;;;;;;5072617;28;20532;-70
2022/06/05 02:13:34;;;;;;;13.52;7.55;;;;;;;;;;5070466;28;20057;-70
2022/06/05 02:16:01;;;;;;;18.27;8.70;;;;;;;;;;5077366;28;20060;-69
2022/06/05 02:18:28;;;;;;;16.23;9.80;;;;;;;;;;5071319;28;20052;-69
2022/06/05 02:20:56;;;;;;;18.88;9.43;;;;;;;;;;5070344;28;20051;-70
2022/06/05 02:23:25;;;;;;;23.30;9.80;;;;;;;;;;5076263;28;20050;-70
2022/06/05 02:25:52;;;;;;;16.85;9.40;;;;;;;;;;5075630;28;20036;-70
2022/06/05 02:28:21;;;;;;;18.10;9.05;;;;;;;;;;5081639;28;20105;-70
2022/06/05 02:30:55;;;;;;;15.73;10.23;;;;;;;;;;5074700;28;20052;-70
2022/06/05 02:33:27;;;;;;;17.30;10.18;;;;;;;;;;5074540;28;20513;-70
2022/06/05 02:35:59;;;;;;;23.13;10.68;;;;;;;;;;5078970;28;20154;-70
2022/06/05 02:38:32;;;;;;;17.52;10.93;;;;;;;;;;5075461;28;20079;-70
2022/06/05 02:41:01;;;;;;;22.13;11.00;;;;;;;;;;5073237;28;20056;-69
2022/06/05 02:43:30;;;;;;;20.23;10.95;;;;;;;;;;5077525;28;20064;-69
2022/06/05 02:46:01;;;;;;;19.42;11.07;;;;;;;;;;5081916;28;20380;-69
2022/06/05 02:48:30;;;;;;;18.60;10.55;;;;;;;;;;5081991;28;20176;-70
2022/06/05 02:51:02;;;;;;;18.13;10.55;;;;;;;;;;5071525;28;20048;-70
2022/06/05 02:53:30;;;;;;;19.70;10.98;;;;;;;;;;5075386;28;20142;-70
2022/06/05 02:55:57;;;;;;;15.70;11.23;;;;;;;;;;5075537;28;20165;-70
2022/06/05 02:58:24;;;;;;;18.15;11.05;;;;;;;;;;5075835;28;20144;-70
2022/06/05 03:03:38;;;;;;;22.35;11.48;;;;;;;;;;5071501;28;20055;-70
2022/06/05 03:06:05;;;;;;;22.90;11.93;;;;;;;;;;5075382;28;20052;-70
2022/06/05 03:08:32;;;;;;;24.27;11.48;;;;;;;;;;5073196;28;20056;-70
2022/06/05 03:10:59;;;;;;;21.42;12.00;;;;;;;;;;5079131;28;20056;-70
2022/06/05 03:13:27;;;;;;;18.58;11.50;;;;;;;;;;5078068;28;20114;-69
2022/06/05 03:15:54;;;;;;;20.25;10.98;;;;;;;;;;5081028;28;20052;-69
2022/06/05 03:18:21;;;;;;;19.35;11.57;;;;;;;;;;5073104;28;20072;-69
2022/06/05 03:20:50;;;;;;;27.25;12.70;;;;;;;;;;5078801;28;20087;-69
2022/06/05 03:23:17;;;;;;;28.27;13.25;;;;;;;;;;5073825;28;20509;-69
2022/06/05 03:25:44;;;;;;;22.10;13.93;;;;;;;;;;5075088;28;20465;-70
2022/06/05 03:28:12;;;;;;;24.52;14.00;;;;;;;;;;5081692;28;20097;-70
2022/06/05 03:30:39;;;;;;;24.77;14.63;;;;;;;;;;5081718;28;20055;-70
2022/06/05 03:33:07;;;;;;;23.40;14.02;;;;;;;;;;5079264;28;20056;-70
2022/06/05 03:35:36;;;;;;;21.35;13.20;;;;;;;;;;5078633;28;20737;-70
2022/06/05 03:38:05;;;;;;;25.88;12.80;;;;;;;;;;5072613;28;20056;-70
2022/06/05 03:40:33;;;;;;;19.40;11.70;;;;;;;;;;5078768;28;20084;-69
2022/06/05 03:43:00;;;;;;;25.77;11.65;;;;;;;;;;5078042;28;20542;-69
2022/06/05 03:45:27;;;;;;;21.60;9.85;;;;;;;;;;5074630;28;20507;-69
2022/06/05 03:47:54;;;;;;;19.92;9.48;;;;;;;;;;5077772;28;20810;-70
2022/06/05 03:50:22;;;;;;;18.90;9.85;;;;;;;;;;5080908;28;20063;-70
2022/06/05 03:52:49;;;;;;;16.73;9.20;;;;;;;;;;5078409;28;20573;-70
2022/06/05 03:55:19;;;;;;;18.92;10.10;;;;;;;;;;5073789;28;20047;-70
2022/06/05 03:57:46;;;;;;;19.88;10.40;;;;;;;;;;5079322;28;20067;-70
2022/06/05 04:00:14;;;;;;;25.40;14.52;;;;;;;;;;5073856;28;20406;-70
2022/06/05 04:02:42;;;;;;;27.30;14.93;;;;;;;;;;5073960;28;20056;-70
2022/06/05 04:05:10;;;;;;;28.08;17.80;;;;;;;;;;5070456;28;20724;-70
2022/06/05 04:07:37;;;;;;;25.48;17.27;;;;;;;;;;5075593;28;20048;-70
2022/06/05 04:10:05;;;;;;;33.15;18.50;;;;;;;;;;5068657;28;20113;-70
2022/06/05 04:12:33;;;;;;;35.05;17.63;;;;;;;;;;5078876;28;20408;-70
2022/06/05 04:15:01;;;;;;;27.75;16.42;;;;;;;;;;5076948;28;20044;-70
2022/06/05 04:17:28;;;;;;;26.55;14.82;;;;;;;;;;5070051;28;20489;-70
2022/06/05 04:19:56;;;;;;;21.50;12.43;;;;;;;;;;5076251;28;20060;-70
2022/06/05 04:22:23;;;;;;;25.38;12.45;;;;;;;;;;5084352;28;20064;-70
2022/06/05 04:24:50;;;;;;;22.92;11.25;;;;;;;;;;5078075;28;20081;-70
2022/06/05 04:27:17;;;;;;;21.63;10.38;;;;;;;;;;5072304;28;20514;-70
2022/06/05 04:29:46;;;;;;;17.58;9.13;;;;;;;;;;5082153;28;20105;-70
2022/06/05 04:32:13;;;;;;;17.67;9.63;;;;;;;;;;5080607;28;20048;-70
2022/06/05 04:34:40;;;;;;;22.63;9.88;;;;;;;;;;5078911;28;20052;-70
2022/06/05 04:37:07;;;;;;;21.45;10.63;;;;;;;;;;5074192;28;20056;-70
2022/06/05 04:39:35;;;;;;;18.38;10.40;;;;;;;;;;5076703;28;20049;-70
2022/06/05 04:42:02;;;;;;;23.77;10.55;;;;;;;;;;5076931;28;20148;-70
2022/06/05 04:44:29;;;;;;;20.33;10.27;;;;;;;;;;5073528;28;20067;-70
2022/06/05 04:46:58;;;;;;;21.20;10.20;;;;;;;;;;5072762;28;20052;-70
2022/06/05 04:49:25;;;;;;;19.60;10.68;;;;;;;;;;5079083;28;20100;-70
2022/06/05 04:51:52;;;;;;;21.23;9.75;;;;;;;;;;5073046;28;20110;-70
2022/06/05 04:54:21;;;;;;;24.58;10.85;;;;;;;;;;5076935;28;20098;-70
2022/06/05 04:56:48;;;;;;;23.30;10.52;;;;;;;;;;5072432;28;20503;-70
2022/06/05 04:59:15;;;;;;;26.83;11.35;;;;;;;;;;5071274;28;20133;-70
2022/06/05 05:01:44;;;;;;;23.90;10.77;;;;;;;;;;5064420;28;20040;-70
2022/06/05 05:04:14;;;;;;;25.05;10.73;;;;;;;;;;5067210;28;20049;-70
2022/06/05 05:06:42;;;;;;;22.60;11.00;;;;;;;;;;5067355;28;20048;-70
2022/06/05 05:09:10;;;;;;;25.38;11.05;;;;;;;;;;5069081;28;20109;-70
2022/06/05 05:11:37;;;;;;;23.45;9.90;;;;;;;;;;5072642;28;20064;-69
2022/06/05 05:14:04;;;;;;;26.83;10.20;;;;;;;;;;5073181;28;20053;-70
2022/06/05 05:16:32;;;;;;;26.23;10.48;;;;;;;;;;5069750;28;20048;-70
2022/06/05 05:18:59;;;;;;;21.73;10.20;;;;;;;;;;5069323;28;20141;-70
2022/06/05 05:21:28;;;;;;;21.25;9.98;;;;;;;;;;5069451;28;20061;-70
2022/06/05 05:23:56;;;;;;;26.60;10.93;;;;;;;;;;5068445;28;20063;-70
2022/06/05 05:26:24;;;;;;;21.02;10.35;;;;;;;;;;5069970;28;20153;-70
2022/06/05 05:28:52;;;;;;;21.90;9.48;;;;;;;;;;5069975;28;20131;-70
2022/06/05 05:31:21;;;;;;;23.02;9.70;;;;;;;;;;5067059;28;20056;-70
2022/06/05 05:33:50;;;;;;;21.70;10.27;;;;;;;;;;5071264;28;20132;-70
2022/06/05 05:36:18;;;;;;;22.85;10.13;;;;;;;;;;5068410;28;20912;-70
2022/06/05 05:44:13;;;;;;;21.48;9.20;;;;;;;;;;5068893;28;20727;-70
2022/06/05 05:46:40;;;;;;;21.13;9.38;;;;;;;;;;5068620;28;20051;-70
2022/06/05 05:49:08;;;;;;;24.50;9.90;;;;;;;;;;5070053;28;20139;-70
2022/06/05 05:51:35;;;;;;;23.10;9.40;;;;;;;;;;5070191;28;20106;-70
2022/06/05 05:54:04;;;;;;;21.83;9.48;;;;;;;;;;5068373;28;20098;-70
2022/06/05 05:56:31;;;;;;;19.27;8.50;;;;;;;;;;5068913;28;20131;-70
2022/06/05 05:58:59;;;;;;;16.25;8.80;;;;;;;;;;5074310;28;20490;-70
2022/06/05 06:01:26;;;;;;;19.08;8.88;;;;;;;;;;5065742;28;20095;-70
2022/06/05 06:03:53;;;;;;;16.83;8.60;;;;;;;;;;5071031;28;20044;-70
2022/06/05 06:06:24;;;;;;;19.92;8.80;;;;;;;;;;5071986;28;20040;-70
2022/06/05 06:08:52;;;;;;;18.00;8.00;;;;;;;;;;5068558;28;20087;-70
2022/06/05 06:11:21;;;;;;;22.88;8.82;;;;;;;;;;5073577;28;20517;-70
2022/06/05 06:13:48;;;;;;;23.15;8.70;;;;;;;;;;5068726;28;20048;-70
2022/06/05 06:16:15;;;;;;;17.85;9.27;;;;;;;;;;5069919;28;20045;-70
2022/06/05 06:18:43;;;;;;;15.80;8.68;;;;;;;;;;5073994;28;20109;-70
2022/06/05 06:21:10;;;;;;;16.15;8.10;;;;;;;;;;5074544;28;20048;-70
2022/06/05 06:23:38;;;;;;;18.05;8.68;;;;;;;;;;5071717;28;20053;-70
2022/06/05 06:26:06;;;;;;;20.05;9.30;;;;;;;;;;5074032;28;20951;-70
2022/06/05 06:28:34;;;;;;;16.40;8.73;;;;;;;;;;5072603;28;20044;-70
2022/06/05 06:31:04;;;;;;;20.75;9.00;;;;;;;;;;5072184;28;20059;-70
2022/06/05 06:33:31;;;;;;;18.02;9.10;;;;;;;;;;5076496;28;20044;-70
2022/06/05 06:36:01;;;;;;;20.30;8.98;;;;;;;;;;5072530;28;20121;-70
2022/06/05 06:38:28;;;;;;;14.10;8.90;;;;;;;;;;5078359;28;20511;-70
2022/06/05 06:40:59;;;;;;;21.65;8.88;;;;;;;;;;5082382;28;20051;-70
2022/06/05 06:43:26;;;;;;;22.25;9.05;;;;;;;;;;5075312;28;20044;-70
2022/06/05 06:45:54;;;;;;;15.98;8.13;;;;;;;;;;5071809;28;20053;-70
2022/06/05 06:48:22;;;;;;;15.20;8.52;;;;;;;;;;5082090;28;20101;-70
2022/06/05 06:50:49;;;;;;;18.95;8.82;;;;;;;;;;5074815;28;20094;-70
2022/06/05 06:53:16;;;;;;;16.92;8.88;;;;;;;;;;5080146;28;20441;-70
2022/06/05 06:55:44;;;;;;;17.35;8.50;;;;;;;;;;5077616;28;20052;-70
2022/06/05 06:58:11;;;;;;;19.67;8.57;;;;;;;;;;5075184;28;20047;-70
2022/06/05 07:00:38;;;;;;;16.40;7.85;;;;;;;;;;5072937;28;20044;-70
2022/06/05 07:03:07;;;;;;;15.85;8.38;;;;;;;;;;5074927;28;20062;-70
2022/06/05 07:05:34;;;;;;;16.55;7.47;;;;;;;;;;5073076;28;20052;-70
2022/06/05 07:08:02;;;;;;;16.35;8.23;;;;;;;;;;5068813;28;20052;-70
2022/06/05 07:10:30;;;;;;;15.38;8.05;;;;;;;;;;5074211;28;20157;-70
2022/06/05 07:12:59;;;;;;;11.48;7.40;;;;;;;;;;5073022;28;20063;-70
2022/06/05 07:15:33;;;;;;;12.52;8.07;;;;;;;;;;5074335;28;20048;-70
2022/06/05 07:18:00;;;;;;;20.33;7.75;;;;;;;;;;5084522;28;20128;-70
2022/06/05 07:20:29;;;;;;;15.57;7.68;;;;;;;;;;5079488;28;20059;-70
2022/06/05 07:22:56;;;;;;;10.95;7.38;;;;;;;;;;5080689;28;20052;-70
2022/06/05 07:25:23;;;;;;;14.48;8.02;;;;;;;;;;5083601;28;20044;-70
2022/06/05 07:27:51;;;;;;;18.17;7.78;;;;;;;;;;5072096;28;20056;-70
2022/06/05 07:30:18;;;;;;;15.05;7.68;;;;;;;;;;5074563;28;20064;-70
2022/06/05 07:32:47;;;;;;;16.95;7.78;;;;;;;;;;5078668;28;20101;-70
2022/06/05 07:35:14;;;;;;;13.82;7.10;;;;;;;;;;5077524;28;20044;-70
2022/06/05 07:37:42;;;;;;;13.88;7.30;;;;;;;;;;5080801;28;20060;-70
2022/06/05 07:40:11;;;;;;;17.67;7.90;;;;;;;;;;5076769;28;20071;-70
2022/06/05 07:42:38;;;;;;;16.80;8.50;;;;;;;;;;5079869;28;20055;-70
2022/06/05 07:45:06;;;;;;;13.13;7.47;;;;;;;;;;5079595;28;20494;-70
2022/06/05 07:47:33;;;;;;;14.73;7.50;;;;;;;;;;5077477;28;20057;-70
2022/06/05 07:50:00;;;;;;;15.57;8.45;;;;;;;;;;5077356;28;20059;-70
2022/06/05 07:55:14;;;;;;;13.93;7.28;;;;;;;;;;5077372;28;20047;-70
2022/06/05 07:57:41;;;;;;;11.40;7.40;;;;;;;;;;5082776;28;20076;-70
2022/06/05 08:00:11;;;;;;;14.18;7.80;;;;;;;;;;5073801;28;20052;-70
2022/06/05 08:02:38;;;;;;;14.02;7.20;;;;;;;;;;5074365;28;20048;-70
2022/06/05 08:05:06;;;;;;;14.95;7.32;;;;;;;;;;5073621;28;20056;-70
2022/06/05 08:07:34;;;;;;;12.77;7.32;;;;;;;;;;5072285;28;20391;-70
2022/06/05 08:10:02;;;;;;;13.95;8.02;;;;;;;;;;5078714;28;20799;-70
2022/06/05 08:12:31;;;;;;;12.07;7.07;;;;;;;;;;5074037;28;20052;-70
2022/06/05 08:14:59;;;;;;;10.70;7.05;;;;;;;;;;5074003;28;20048;-70
2022/06/05 08:17:28;;;;;;;11.88;7.53;;;;;;;;;;5074970;28;20207;-70
2022/06/05 08:19:55;;;;;;;19.33;7.75;;;;;;;;;;5082002;28;20052;-70
2022/06/05 08:22:23;;;;;;;12.57;7.82;;;;;;;;;;5078684;28;20048;-70
2022/06/05 08:24:52;;;;;;;12.65;7.03;;;;;;;;;;5075563;28;20056;-70
2022/06/05 08:27:20;;;;;;;12.48;7.50;;;;;;;;;;5075488;28;20055;-70
2022/06/05 08:29:49;;;;;;;12.05;7.13;;;;;;;;;;5074436;28;20044;-70
2022/06/05 08:32:16;;;;;;;11.77;7.45;;;;;;;;;;5075843;28;20117;-70
2022/06/05 08:34:44;;;;;;;11.38;7.00;;;;;;;;;;5071611;28;20090;-70
2022/06/05 08:42:46;;;;;;;14.30;7.70;;;;;;;;;;5076775;28;20055;-70
2022/06/05 08:45:19;;;;;;;11.40;7.30;;;;;;;;;;5077427;28;20109;-70
2022/06/05 08:47:49;;;;;;;9.52;6.93;;;;;;;;;;5073098;28;20048;-70
2022/06/05 08:50:23;;;;;;;11.93;7.53;;;;;;;;;;5070569;28;20482;-70
2022/06/05 08:52:51;;;;;;;9.63;7.35;;;;;;;;;;5074775;28;20044;-70
2022/06/05 08:55:23;;;;;;;11.00;7.30;;;;;;;;;;5080279;28;20093;-70
2022/06/05 08:57:53;;;;;;;10.50;7.27;;;;;;;;;;5071440;28;20109;-70
2022/06/05 09:00:26;;;;;;;10.75;6.93;;;;;;;;;;5075178;28;20044;-70
2022/06/05 09:02:56;;;;;;;8.95;6.63;;;;;;;;;;5070182;28;20048;-71
2022/06/05 09:05:25;;;;;;;10.45;7.35;;;;;;;;;;5074009;28;20056;-71
2022/06/05 09:07:53;;;;;;;9.13;6.72;;;;;;;;;;5076791;28;20054;-71
2022/06/05 09:10:24;;;;;;;10.40;6.90;;;;;;;;;;5072514;28;20119;-71
2022/06/05 09:12:53;;;;;;;11.88;7.00;;;;;;;;;;5072104;28;20142;-70
2022/06/05 09:15:26;;;;;;;9.93;7.03;;;;;;;;;;5070015;28;20048;-70
2022/06/05 09:17:55;;;;;;;11.10;6.97;;;;;;;;;;5073373;28;20052;-70
2022/06/05 09:20:25;;;;;;;9.07;6.25;;;;;;;;;;5076884;28;20048;-70
2022/06/05 09:22:59;;;;;;;9.70;7.13;;;;;;;;;;5070477;28;20052;-70
2022/06/05 09:25:39;;;;;;;10.15;6.22;;;;;;;;;;5070890;28;20141;-70
2022/06/05 09:28:15;;;;;;;11.40;6.70;;;;;;;;;;5071968;28;20058;-70
2022/06/05 09:30:49;;;;;;;11.07;7.10;;;;;;;;;;5074326;28;20056;-70
2022/06/05 09:33:18;;;;;;;11.50;7.13;;;;;;;;;;5071971;28;20045;-70
2022/06/05 09:35:48;;;;;;;7.85;6.28;;;;;;;;;;5074440;28;20097;-70
2022/06/05 09:38:18;;;;;;;8.40;6.47;;;;;;;;;;5071330;28;20052;-70
2022/06/05 09:40:51;;;;;;;10.52;6.32;;;;;;;;;;5073987;28;20357;-70
2022/06/05 09:43:26;;;;;;;9.88;6.50;;;;;;;;;;5076632;28;20452;-70
2022/06/05 09:46:08;;;;;;;7.88;6.30;;;;;;;;;;5074091;28;20102;-70
2022/06/05 09:48:48;;;;;;;8.25;6.32;;;;;;;;;;5072994;28;20101;-70
2022/06/05 09:51:17;;;;;;;8.27;6.18;;;;;;;;;;5069223;28;20060;-70
2022/06/05 09:53:46;;;;;;;10.20;6.50;;;;;;;;;;5075476;28;20056;-71
2022/06/05 09:56:18;;;;;;;10.88;6.22;;;;;;;;;;5073654;28;20044;-71
2022/06/05 09:58:51;;;;;;;7.90;6.10;;;;;;;;;;5076161;28;20047;-71
2022/06/05 10:01:28;;;;;;;8.25;6.50;;;;;;;;;;5076707;28;20085;-70
2022/06/05 10:03:56;;;;;;;9.98;6.13;;;;;;;;;;5068318;28;20064;-70
2022/06/05 10:06:26;;;;;;;9.00;6.50;;;;;;;;;;5075937;28;20097;-70
2022/06/05 10:08:56;;;;;;;9.57;6.50;;;;;;;;;;5078169;28;20467;-70
2022/06/05 10:11:26;;;;;;;8.23;6.55;;;;;;;;;;5075298;28;20075;-70
2022/06/05 10:14:00;;;;;;;7.22;6.20;;;;;;;;;;5074026;28;20055;-70
2022/06/05 10:16:33;;;;;;;10.60;6.78;;;;;;;;;;5069217;28;20173;-70
2022/06/05 10:19:07;;;;;;;10.38;5.88;;;;;;;;;;5073310;28;20114;-70
2022/06/05 10:21:36;;;;;;;9.40;6.22;;;;;;;;;;5072587;28;21417;-70
2022/06/05 10:24:11;;;;;;;12.27;6.40;;;;;;;;;;5078615;28;20059;-70
2022/06/05 10:26:40;;;;;;;8.05;5.72;;;;;;;;;;5076691;28;20623;-70
2022/06/05 10:29:21;;;;;;;11.23;5.72;;;;;;;;;;5077095;28;20059;-70
2022/06/05 10:31:54;;;;;;;7.93;5.75;;;;;;;;;;5075515;28;20098;-70
2022/06/05 10:34:21;;;;;;;;;;;;;;;;;;5072353;28;20048;-70
2022/06/05 10:36:53;;;;;;;10.07;5.97;;;;;;;;;;5072622;28;20026;-70
2022/06/05 10:39:24;;;;;;;7.30;6.13;;;;;;;;;;5067185;28;20076;-70
2022/06/05 10:42:04;;;;;;;7.78;6.15;;;;;;;;;;5076212;28;20426;-70
2022/06/05 10:44:34;;;;;;;7.88;6.10;;;;;;;;;;5071279;28;20515;-70
2022/06/05 10:47:06;;;;;;;9.23;6.15;;;;;;;;;;5075499;28;20101;-70
2022/06/05 10:49:37;;;;;;;11.40;5.70;;;;;;;;;;5075211;28;20800;-70
2022/06/05 10:52:10;;;;;;;8.13;6.20;;;;;;;;;;5071539;28;20040;-70
2022/06/05 10:54:40;;;;;;;8.43;6.78;;;;;;;;;;5082176;28;20414;-70
2022/06/05 10:57:12;;;;;;;12.57;8.63;;;;;;;;;;5071293;28;20101;-70
2022/06/05 10:59:45;;;;;;;13.47;9.13;;;;;;;;;;5077095;28;20052;-70
2022/06/05 11:02:27;;;;;;;11.73;8.45;;;;;;;;;;5077579;28;20811;-70
2022/06/05 11:05:00;;;;;;;10.70;8.50;;;;;;;;;;5081232;28;20647;-70
2022/06/05 11:07:51;;;;;;;15.50;9.45;;;;;;;;;;5079580;28;20059;-70
2022/06/05 11:16:07;;;;;;;15.60;10.15;;;;;;;;;;5075669;28;20044;-70
2022/06/05 11:18:38;;;;;;;13.85;9.43;;;;;;;;;;5080528;28;20052;-70
2022/06/05 11:21:06;;;;;;;16.10;9.60;;;;;;;;;;5074617;28;20052;-70
2022/06/05 11:23:35;;;;;;;11.75;8.15;;;;;;;;;;5071837;28;20064;-70
2022/06/05 11:26:06;;;;;;;11.40;8.38;;;;;;;;;;5076975;28;20055;-70
2022/06/05 11:28:49;;;;;;;14.60;9.10;;;;;;;;;;5077164;28;20125;-70
2022/06/05 11:31:23;;;;;;;14.25;9.00;;;;;;;;;;5073135;28;20133;-70
2022/06/05 11:33:54;;;;;;;16.10;9.65;;;;;;;;;;5078900;28;20784;-70
2022/06/05 11:36:24;;;;;;;12.57;8.82;;;;;;;;;;5072731;28;20102;-70
2022/06/05 11:39:00;;;;;;;17.10;9.27;;;;;;;;;;5077804;28;20059;-71
2022/06/05 11:41:29;;;;;;;14.55;8.70;;;;;;;;;;5074400;28;20560;-71
2022/06/05 11:44:09;;;;;;;14.27;8.63;;;;;;;;;;5072269;28;20052;-71
2022/06/05 11:46:39;;;;;;;15.90;8.98;;;;;;;;;;5072577;28;20044;-71
2022/06/05 11:49:12;;;;;;;13.18;8.70;;;;;;;;;;5070940;28;20655;-71
2022/06/05 11:51:58;;;;;;;16.47;8.07;;;;;;;;;;5076060;28;20048;-71
2022/06/05 11:54:28;;;;;;;16.35;9.00;;;;;;;;;;5075862;28;20390;-71
2022/06/05 11:57:00;;;;;;;21.67;9.45;;;;;;;;;;5072685;28;20503;-70
2022/06/05 11:59:30;;;;;;;14.45;8.55;;;;;;;;;;5073047;28;20445;-70
2022/06/05 12:01:59;;;;;;;17.58;9.07;;;;;;;;;;5073998;28;20052;-70
2022/06/05 12:04:34;;;;;;;15.10;8.43;;;;;;;;;;5066150;28;20146;-70
2022/06/05 12:07:03;;;;;;;17.98;8.80;;;;;;;;;;5073442;28;20048;-70
2022/06/05 12:09:33;;;;;;;17.98;9.43;;;;;;;;;;5076441;28;20056;-70
2022/06/05 12:12:04;;;;;;;16.55;9.30;;;;;;;;;;5072954;28;20365;-70
2022/06/05 12:14:34;;;;;;;17.98;9.48;;;;;;;;;;5072995;28;20044;-70
2022/06/05 12:17:07;;;;;;;14.75;8.88;;;;;;;;;;5074381;28;20048;-70
2022/06/05 12:19:45;;;;;;;20.40;9.65;;;;;;;;;;5070255;28;20060;-70
2022/06/05 12:22:15;;;;;;;16.23;9.75;;;;;;;;;;5079958;28;20048;-70
2022/06/05 12:24:46;;;;;;;17.83;9.75;;;;;;;;;;5078006;28;20044;-70
2022/06/05 12:27:15;;;;;;;18.83;9.55;;;;;;;;;;5078539;28;20451;-70
2022/06/05 12:29:45;;;;;;;21.33;10.23;;;;;;;;;;5075783;28;20091;-70
2022/06/05 12:32:16;;;;;;;16.88;10.63;;;;;;;;;;5075814;28;20856;-70
2022/06/05 12:34:46;;;;;;;24.58;9.98;;;;;;;;;;5076688;28;20056;-70
2022/06/05 12:37:18;;;;;;;22.90;9.93;;;;;;;;;;5071698;28;20048;-70
2022/06/05 12:39:47;;;;;;;17.33;8.90;;;;;;;;;;5074541;28;20040;-70
2022/06/05 12:42:20;;;;;;;17.75;9.55;;;;;;;;;;5079534;28;20085;-70
2022/06/05 12:44:50;;;;;;;19.08;10.05;;;;;;;;;;5070904;28;20056;-70
2022/06/05 12:47:23;;;;;;;18.63;9.80;;;;;;;;;;5070655;28;20469;-70
2022/06/05 12:50:03;;;;;;;14.75;9.57;;;;;;;;;;5077418;28;20075;-70
2022/06/05 12:52:34;;;;;;;19.88;8.98;;;;;;;;;;5073459;28;20056;-70
2022/06/05 12:55:03;;;;;;;19.58;9.82;;;;;;;;;;5071877;28;20466;-70
2022/06/05 12:57:36;;;;;;;17.33;9.43;;;;;;;;;;5078341;28;20499;-70
2022/06/05 13:00:05;;;;;;;18.52;9.45;;;;;;;;;;5079603;28;20044;-70
2022/06/05 13:02:35;;;;;;;14.52;8.68;;;;;;;;;;5076802;28;20048;-70
2022/06/05 13:05:07;;;;;;;17.38;8.77;;;;;;;;;;5073010;28;20101;-70
2022/06/05 13:07:38;;;;;;;16.10;8.90;;;;;;;;;;5070109;28;20077;-71
2022/06/05 13:10:15;;;;;;;16.33;9.02;;;;;;;;;;5077640;28;20064;-71
2022/06/05 13:12:47;;;;;;;18.23;9.02;;;;;;;;;;5074769;28;20139;-70
2022/06/05 13:15:19;;;;;;;16.92;8.68;;;;;;;;;;5077371;28;20060;-70
2022/06/05 13:17:49;;;;;;;22.55;9.18;;;;;;;;;;5074418;28;20053;-70
2022/06/05 13:20:21;;;;;;;15.88;8.73;;;;;;;;;;5067340;28;20052;-70
2022/06/05 13:22:49;;;;;;;19.67;9.15;;;;;;;;;;5071873;28;20143;-70
2022/06/05 13:25:18;;;;;;;16.90;8.65;;;;;;;;;;5079705;28;20097;-70
2022/06/05 13:28:02;;;;;;;21.55;9.07;;;;;;;;;;5069972;28;20051;-70
2022/06/05 13:30:30;;;;;;;15.63;8.65;;;;;;;;;;5072230;28;20052;-70
2022/06/05 13:33:02;;;;;;;17.83;8.48;;;;;;;;;;5069693;28;20048;-71
2022/06/05 13:35:33;;;;;;;14.43;8.73;;;;;;;;;;5074200;28;20052;-71
2022/06/05 13:38:05;;;;;;;20.10;9.82;;;;;;;;;;5074953;28;20078;-70
2022/06/05 13:40:40;;;;;;;11.85;8.32;;;;;;;;;;5073688;28;20051;-70
2022/06/05 13:43:14;;;;;;;17.85;8.68;;;;;;;;;;5072020;28;20056;-70
2022/06/05 13:45:44;;;;;;;17.55;9.50;;;;;;;;;;5073454;28;20048;-70
2022/06/05 13:48:16;;;;;;;18.80;9.68;;;;;;;;;;5071467;28;20121;-70
2022/06/05 13:50:51;;;;;;;21.20;9.52;;;;;;;;;;5064496;28;20060;-70
2022/06/05 13:53:20;;;;;;;16.50;9.07;;;;;;;;;;5081325;28;20043;-70
2022/06/05 13:55:54;;;;;;;18.48;9.20;;;;;;;;;;5075329;28;20047;-70
2022/06/05 13:58:23;;;;;;;17.58;9.40;;;;;;;;;;5071678;28;20097;-70
2022/06/05 14:00:53;;;;;;;18.20;9.60;;;;;;;;;;5074179;28;20071;-70
2022/06/05 14:03:35;;;;;;;23.92;9.70;;;;;;;;;;5066051;28;20507;-70
2022/06/05 14:06:06;;;;;;;18.48;9.20;;;;;;;;;;5067730;28;20059;-70
2022/06/05 14:08:38;;;;;;;19.98;9.60;;;;;;;;;;5077451;28;20052;-71
2022/06/05 14:11:07;;;;;;;24.67;10.80;;;;;;;;;;5065237;28;20102;-71
2022/06/05 14:13:40;;;;;;;25.98;10.73;;;;;;;;;;5067475;28;20099;-71
2022/06/05 14:16:08;;;;;;;16.63;10.43;;;;;;;;;;5071349;28;20053;-71
2022/06/05 14:18:41;;;;;;;19.88;10.30;;;;;;;;;;5068925;28;20052;-71
2022/06/05 14:21:08;;;;;;;;;;;;;;;;;;5075135;28;20123;-71
2022/06/05 14:23:36;;;;;;;20.05;10.65;;;;;;;;;;5075417;28;19924;-71
2022/06/05 14:26:05;;;;;;;21.33;11.10;;;;;;;;;;5070333;28;20749;-71
2022/06/05 14:28:37;;;;;;;18.05;10.35;;;;;;;;;;5073898;28;20051;-70
2022/06/05 14:31:09;;;;;;;22.80;10.27;;;;;;;;;;5073117;28;20440;-70
2022/06/05 14:33:39;;;;;;;18.75;11.05;;;;;;;;;;5069351;28;20545;-70
2022/06/05 14:36:07;;;;;;;21.15;10.82;;;;;;;;;;5081512;28;20044;-70
2022/06/05 14:38:38;;;;;;;21.30;11.13;;;;;;;;;;5075715;28;20043;-70
2022/06/05 14:41:11;;;;;;;21.48;9.73;;;;;;;;;;5069013;28;20075;-70
2022/06/05 14:43:38;;;;;;;;;;;;;;;;;;5076903;28;20077;-70
2022/06/05 14:46:14;;;;;;;23.33;10.88;;;;;;;;;;5073784;28;19924;-70
2022/06/05 14:48:44;;;;;;;19.65;10.15;;;;;;;;;;5077294;28;20102;-70
2022/06/05 14:51:13;;;;;;;22.05;10.38;;;;;;;;;;5075934;28;20063;-70
2022/06/05 14:53:47;;;;;;;20.33;10.68;;;;;;;;;;5076390;28;20093;-70
2022/06/05 14:59:08;;;;;;;24.02;11.50;;;;;;;;;;5072133;28;20055;-70
2022/06/05 15:01:37;;;;;;;23.13;10.90;;;;;;;;;;5075141;28;20079;-70
2022/06/05 15:04:11;;;;;;;20.33;10.07;;;;;;;;;;5073641;28;20135;-70
2022/06/05 15:06:41;;;;;;;15.88;10.02;;;;;;;;;;5073238;28;20090;-70
2022/06/05 15:09:12;;;;;;;18.60;10.20;;;;;;;;;;5069319;28;20044;-70